Time;durP1;ratioP1;P1;durP2;ratioP2;P2;SDS_P1;SDS_P2;PMS_P1;PMS_P2;Temp;Humidity;BMP_temperature;BMP_pressure;BME280_temperature;BME280_humidity;BME280_pressure;Samples;Min_cycle;Max_cycle;Signal;HPM_P1;HPM_P2
2021/01/03 00:01:14;;;;;;;38.85;18.80;;;;;;;;;;6282455;22;20023;-89
2021/01/03 00:04:48;;;;;;;37.30;17.38;;;2.10;99.90;;;;;;6284634;22;20067;-90
2021/01/03 00:08:40;;;;;;;38.10;17.02;;;;;;;;;;6331537;22;20063;-91
2021/01/03 00:11:52;;;;;;;36.03;16.83;;;;;;;;;;6302187;22;20009;-91
2021/01/03 00:14:59;;;;;;;37.22;16.20;;;;;;;;;;6303330;22;20021;-91
2021/01/03 00:18:48;;;;;;;29.50;16.15;;;2.10;99.90;;;;;;6324220;22;20033;-90
2021/01/03 00:22:01;;;;;;;31.50;13.80;;;;;;;;;;6316071;22;20007;-90
2021/01/03 00:25:15;;;;;;;24.95;11.57;;;;;;;;;;6229447;22;20016;-90
2021/01/03 00:28:26;;;;;;;;;;;2.00;99.90;;;;;;6277885;22;20041;-90
2021/01/03 00:31:10;;;;;;;27.67;12.68;;;;;;;;;;6225805;22;19921;-90
2021/01/03 00:34:19;;;;;;;27.67;14.52;;;;;;;;;;6239902;22;20008;-91
2021/01/03 00:37:10;;;;;;;31.50;14.00;;;;;;;;;;6269033;23;20024;-91
2021/01/03 00:40:01;;;;;;;30.85;12.93;;;;;;;;;;6248562;23;20018;-90
2021/01/03 00:43:46;;;;;;;25.48;12.85;;;2.00;99.90;;;;;;6240994;23;20578;-91
2021/01/03 00:46:36;;;;;;;36.05;15.35;;;;;;;;;;6218098;23;20016;-89
2021/01/03 00:50:14;;;;;;;28.23;11.80;;;;;;;;;;6279619;23;20077;-90
2021/01/03 00:53:46;;;;;;;27.55;12.40;;;;;;;;;;6188733;23;20025;-91
2021/01/03 01:00:43;;;;;;;27.58;12.82;;;;;;;;;;6153434;23;20045;-90
2021/01/03 01:04:22;;;;;;;28.42;12.07;;;;;;;;;;6218628;23;20017;-90
2021/01/03 01:08:02;;;;;;;26.98;11.80;;;;;;;;;;6300178;22;20029;-90
2021/01/03 01:11:12;;;;;;;25.52;10.85;;;;;;;;;;6325470;22;20518;-89
2021/01/03 01:14:33;;;;;;;21.85;10.13;;;;;;;;;;6278558;22;20510;-90
2021/01/03 01:18:05;;;;;;;30.83;12.45;;;;;;;;;;6329158;22;20023;-90
2021/01/03 01:28:26;;;;;;;;;;;;;;;;;;;;;
2021/01/03 01:32:31;;;;;;;24.33;10.38;;;2.10;99.90;;;;;;6156867;23;20014;-89
2021/01/03 01:39:33;;;;;;;24.42;10.70;;;;;;;;;;6181774;23;20027;-90
2021/01/03 01:42:52;;;;;;;15.52;8.05;;;2.20;99.90;;;;;;6139168;23;20019;-90
2021/01/03 01:46:20;;;;;;;21.10;8.60;;;;;;;;;;6198170;23;20027;-91
2021/01/03 01:49:03;;;;;;;18.95;8.60;;;2.20;99.90;;;;;;6243475;23;20012;-89
2021/01/03 01:52:13;;;;;;;19.25;10.10;;;;;;;;;;6267326;23;20031;-89
2021/01/03 01:54:59;;;;;;;22.48;10.65;;;;;;;;;;6264904;23;20087;-90
2021/01/03 01:58:01;;;;;;;26.08;12.32;;;;;;;;;;6270734;22;20026;-89
2021/01/03 02:00:52;;;;;;;21.58;10.20;;;;;;;;;;6270412;22;20008;-90
2021/01/03 02:03:51;;;;;;;21.17;9.48;;;;;;;;;;6273578;22;20003;-90
2021/01/03 02:06:46;;;;;;;24.98;10.68;;;2.20;99.90;;;;;;6266161;22;20474;-90
2021/01/03 02:09:54;;;;;;;28.27;10.60;;;;;;;;;;6267342;22;20022;-89
2021/01/03 02:13:05;;;;;;;28.40;11.73;;;;;;;;;;6296375;22;20012;-90
2021/01/03 02:16:04;;;;;;;48.00;11.93;;;;;;;;;;6292573;22;20024;-89
2021/01/03 02:18:59;;;;;;;24.75;10.27;;;;;;;;;;6275027;22;20020;-90
2021/01/03 02:21:49;;;;;;;26.33;12.13;;;;;;;;;;6295084;22;20407;-90
2021/01/03 02:24:52;;;;;;;23.23;9.48;;;;;;;;;;6272465;22;20020;-90
2021/01/03 02:27:47;;;;;;;24.13;9.65;;;;;;;;;;6295842;22;20024;-90
2021/01/03 02:30:24;;;;;;;24.35;10.95;;;;;;;;;;6299327;22;20016;-91
2021/01/03 02:33:46;;;;;;;25.23;10.38;;;;;;;;;;6203681;22;20034;-89
2021/01/03 02:36:38;;;;;;;27.08;10.68;;;;;;;;;;6294813;22;20034;-91
2021/01/03 02:39:34;;;;;;;26.30;11.15;;;;;;;;;;6243159;22;20019;-89
2021/01/03 02:42:19;;;;;;;23.25;10.63;;;;;;;;;;6244153;22;20022;-91
2021/01/03 02:45:27;;;;;;;21.73;10.23;;;;;;;;;;6296814;22;20023;-89
2021/01/03 02:48:08;;;;;;;23.38;11.05;;;;;;;;;;6292696;22;20023;-90
2021/01/03 02:51:17;;;;;;;24.48;11.30;;;2.40;99.90;;;;;;6295542;22;20331;-90
2021/01/03 02:54:10;;;;;;;27.42;11.48;;;2.40;99.90;;;;;;6275425;22;20729;-89
2021/01/03 02:56:59;;;;;;;29.00;11.45;;;;;;;;;;6244118;22;20010;-89
2021/01/03 02:59:47;;;;;;;19.58;8.25;;;;;;;;;;6264755;22;20033;-90
2021/01/03 03:02:24;;;;;;;21.27;10.77;;;;;;;;;;6292712;22;20018;-90
2021/01/03 03:05:22;;;;;;;15.07;7.53;;;2.40;99.90;;;;;;6293490;22;20019;-91
2021/01/03 03:08:10;;;;;;;21.33;8.20;;;;;;;;;;6245460;22;20021;-89
2021/01/03 03:10:54;;;;;;;19.83;7.70;;;;;;;;;;6267518;22;20024;-90
2021/01/03 03:13:43;;;;;;;17.95;9.73;;;;;;;;;;6290078;22;20016;-90
2021/01/03 03:16:33;;;;;;;20.45;8.40;;;;;;;;;;6245736;22;20015;-90
2021/01/03 03:20:10;;;;;;;19.25;8.90;;;;;;;;;;6283637;22;20030;-90
2021/01/03 03:23:11;;;;;;;18.80;9.38;;;;;;;;;;6248268;22;20030;-89
2021/01/03 03:25:55;;;;;;;21.25;9.23;;;;;;;;;;6245447;22;20027;-91
2021/01/03 03:28:37;;;;;;;18.67;8.27;;;2.50;99.90;;;;;;6272626;22;20015;-90
2021/01/03 03:31:27;;;;;;;20.02;9.18;;;2.40;99.90;;;;;;6225251;22;20030;-90
2021/01/03 03:34:01;;;;;;;19.67;8.07;;;;;;;;;;6297667;22;20016;-91
2021/01/03 03:37:08;;;;;;;19.65;7.78;;;2.60;99.90;;;;;;6269674;22;20026;-91
2021/01/03 03:40:04;;;;;;;18.30;8.02;;;;;;;;;;6296039;22;20025;-90
2021/01/03 03:42:49;;;;;;;19.88;8.45;;;;;;;;;;6272911;22;20016;-90
2021/01/03 03:45:52;;;;;;;17.83;8.75;;;;;;;;;;6289254;22;20019;-90
2021/01/03 03:48:57;;;;;;;17.95;8.35;;;;;;;;;;6308888;22;20029;-91
2021/01/03 03:51:39;;;;;;;19.50;8.23;;;;;;;;;;6249946;22;20007;-91
2021/01/03 03:54:15;;;;;;;18.30;8.15;;;;;;;;;;6322815;22;20023;-90
2021/01/03 03:57:04;;;;;;;17.45;7.97;;;;;;;;;;6320834;22;20045;-89
2021/01/03 03:59:47;;;;;;;20.33;8.88;;;;;;;;;;6278554;22;20015;-90
2021/01/03 04:03:00;;;;;;;16.00;6.43;;;;;;;;;;6242449;23;20083;-90
2021/01/03 04:05:46;;;;;;;13.88;5.97;;;;;;;;;;6262840;23;20016;-90
2021/01/03 04:08:17;;;;;;;;;;;2.70;99.90;;;;;;6262735;23;20016;-90
2021/01/03 04:11:00;;;;;;;18.17;7.68;;;;;;;;;;6184483;23;19925;-91
2021/01/03 04:13:51;;;;;;;18.23;8.48;;;;;;;;;;6237809;23;20043;-89
2021/01/03 04:16:35;;;;;;;15.63;7.15;;;;;;;;;;6238424;23;20016;-90
2021/01/03 04:19:18;;;;;;;18.42;7.90;;;;;;;;;;6237195;23;20020;-91
2021/01/03 04:22:02;;;;;;;18.70;8.15;;;;;;;;;;6191587;23;20030;-90
2021/01/03 04:24:47;;;;;;;18.63;8.32;;;;;;;;;;6238161;23;20020;-90
2021/01/03 04:27:35;;;;;;;18.67;8.20;;;;;;;;;;6223837;23;20034;-89
2021/01/03 04:31:00;;;;;;;15.93;7.25;;;;;;;;;;6217586;23;20023;-89
2021/01/03 04:33:46;;;;;;;18.33;8.88;;;;;;;;;;6213534;23;20034;-90
2021/01/03 04:36:34;;;;;;;20.23;9.15;;;;;;;;;;6238018;23;20012;-89
2021/01/03 04:39:20;;;;;;;17.05;7.28;;;;;;;;;;6181516;23;20031;-89
2021/01/03 04:42:08;;;;;;;18.33;8.38;;;;;;;;;;6232460;23;20315;-90
2021/01/03 04:44:56;;;;;;;18.35;9.50;;;;;;;;;;6228885;23;20511;-90
2021/01/03 04:47:35;;;;;;;22.75;9.73;;;;;;;;;;6251905;22;20034;-88
2021/01/03 04:50:48;;;;;;;18.30;7.85;;;;;;;;;;6290757;22;20066;-90
2021/01/03 04:53:37;;;;;;;17.13;8.18;;;;;;;;;;6268299;22;20026;-89
2021/01/03 04:56:17;;;;;;;19.70;8.13;;;;;;;;;;6295395;22;20022;-91
2021/01/03 04:59:14;;;;;;;19.20;8.25;;;;;;;;;;6262012;22;20019;-89
2021/01/03 05:02:06;;;;;;;16.85;8.05;;;;;;;;;;6276810;22;20016;-90
2021/01/03 05:04:41;;;;;;;23.53;8.80;;;;;;;;;;6312856;22;20020;-89
2021/01/03 05:07:52;;;;;;;19.30;7.32;;;;;;;;;;6292703;22;20251;-90
2021/01/03 05:10:41;;;;;;;18.73;8.45;;;;;;;;;;6265916;22;20018;-89
2021/01/03 05:13:28;;;;;;;22.00;8.98;;;;;;;;;;6291338;22;20016;-91
2021/01/03 05:16:16;;;;;;;23.88;9.77;;;;;;;;;;6266404;22;20016;-90
2021/01/03 05:19:19;;;;;;;24.08;10.55;;;2.70;99.90;;;;;;6294765;22;20015;-90
2021/01/03 05:22:02;;;;;;;25.15;9.98;;;2.70;99.90;;;;;;6246127;22;20016;-91
2021/01/03 05:24:54;;;;;;;22.40;11.55;;;;;;;;;;6262640;22;20016;-91
2021/01/03 05:27:40;;;;;;;26.88;12.43;;;;;;;;;;6268955;22;20019;-91
2021/01/03 05:30:29;;;;;;;28.35;12.35;;;;;;;;;;6290583;22;20012;-89
2021/01/03 05:33:26;;;;;;;33.97;13.45;;;2.80;99.90;;;;;;6264008;22;20024;-88
2021/01/03 05:36:42;;;;;;;25.77;12.02;;;2.70;99.90;;;;;;6291646;22;20003;-90
2021/01/03 05:42:47;;;;;;;30.33;13.75;;;;;;;;;;6304987;22;20026;-88
2021/01/03 05:45:46;;;;;;;28.60;14.38;;;;;;;;;;6259982;22;20020;-90
2021/01/03 05:48:29;;;;;;;29.52;13.20;;;;;;;;;;6298149;22;20022;-88
2021/01/03 05:52:11;;;;;;;28.40;13.48;;;;;;;;;;6319194;22;20023;-87
2021/01/03 05:55:04;;;;;;;39.30;15.23;;;;;;;;;;6272822;22;20023;-90
2021/01/03 05:57:50;;;;;;;26.55;12.18;;;;;;;;;;6270015;22;20019;-89
2021/01/03 06:00:40;;;;;;;30.23;14.45;;;;;;;;;;6262215;22;20030;-89
2021/01/03 06:03:37;;;;;;;39.38;16.17;;;;;;;;;;6277397;22;20026;-89
2021/01/03 06:06:50;;;;;;;30.23;15.27;;;;;;;;;;6324099;22;20018;-89
2021/01/03 06:09:39;;;;;;;30.77;16.13;;;;;;;;;;6323724;22;20011;-89
2021/01/03 06:12:24;;;;;;;34.13;16.48;;;2.30;99.90;;;;;;6278566;22;20026;-89
2021/01/03 06:15:40;;;;;;;34.20;12.65;;;3.00;99.90;;;;;;6326532;22;20011;-90
2021/01/03 06:19:11;;;;;;;34.85;14.95;;;3.10;99.90;;;;;;6302015;22;20022;-89
2021/01/03 06:22:13;;;;;;;37.78;15.00;;;;;;;;;;6281886;22;20140;-89
2021/01/03 06:24:49;;;;;;;33.95;12.38;;;;;;;;;;6279336;22;20023;-89
2021/01/03 06:27:41;;;;;;;32.65;13.48;;;;;;;;;;6283236;22;20029;-89
2021/01/03 06:30:31;;;;;;;31.73;14.35;;;3.10;99.90;;;;;;6252602;22;20016;-87
2021/01/03 06:33:49;;;;;;;29.50;13.25;;;3.00;99.90;;;;;;6317762;22;20007;-91
2021/01/03 06:36:56;;;;;;;34.63;13.07;;;3.30;99.90;;;;;;6251798;22;20019;-90
2021/01/03 06:39:41;;;;;;;31.70;13.60;;;;;;;;;;6299184;22;20011;-90
2021/01/03 06:42:45;;;;;;;27.98;13.70;;;;;;;;;;6296553;22;20033;-90
2021/01/03 06:46:00;;;;;;;36.25;13.90;;;;;;;;;;6313260;22;20029;-91
2021/01/03 06:49:05;;;;;;;33.15;16.63;;;;;;;;;;6297201;22;20026;-89
2021/01/03 06:51:47;;;;;;;38.08;13.98;;;;;;;;;;6282646;22;20019;-89
2021/01/03 06:54:42;;;;;;;32.15;13.60;;;;;;;;;;6300223;22;20023;-89
2021/01/03 06:58:00;;;;;;;26.23;11.93;;;;;;;;;;6307406;22;20019;-90
2021/01/03 07:00:58;;;;;;;27.15;12.88;;;;;;;;;;6277699;22;20026;-92
2021/01/03 07:03:31;;;;;;;31.15;12.88;;;;;;;;;;6274509;22;20017;-90
2021/01/03 07:06:20;;;;;;;28.37;12.90;;;;;;;;;;6315122;22;20030;-90
2021/01/03 07:09:09;;;;;;;37.72;15.57;;;;;;;;;;6299774;22;20026;-89
2021/01/03 07:11:59;;;;;;;31.63;12.55;;;3.30;99.90;;;;;;6318458;22;20030;-91
2021/01/03 07:14:55;;;;;;;29.55;15.00;;;;;;;;;;6325046;22;20459;-89
2021/01/03 07:17:57;;;;;;;24.52;11.45;;;3.40;99.90;;;;;;6301833;22;20033;-90
2021/01/03 07:21:23;;;;;;;25.70;12.98;;;;;;;;;;6319031;22;20019;-90
2021/01/03 07:24:30;;;;;;;30.55;14.13;;;;;;;;;;6323724;22;20019;-89
2021/01/03 07:27:43;;;;;;;30.35;15.93;;;;;;;;;;6320354;22;20023;-91
2021/01/03 07:30:40;;;;;;;22.88;10.57;;;;;;;;;;6328898;22;20023;-90
2021/01/03 07:33:42;;;;;;;25.77;12.32;;;;;;;;;;6256061;22;20023;-89
2021/01/03 07:36:51;;;;;;;30.83;13.52;;;;;;;;;;6250362;22;20016;-90
2021/01/03 07:40:08;;;;;;;29.52;12.98;;;;;;;;;;6299791;22;20011;-90
2021/01/03 07:43:03;;;;;;;;;;;3.50;99.90;;;;;;6274460;22;20045;-90
2021/01/03 07:45:37;;;;;;;22.70;11.45;;;;;;;;;;6272110;22;19916;-90
2021/01/03 07:48:48;;;;;;;25.45;12.60;;;3.50;99.90;;;;;;6284974;22;20063;-89
2021/01/03 07:51:53;;;;;;;31.17;14.05;;;;;;;;;;6222920;22;20020;-89
2021/01/03 07:54:28;;;;;;;27.73;14.50;;;;;;;;;;6166300;22;20416;-90
2021/01/03 07:57:20;;;;;;;26.83;12.15;;;3.50;99.90;;;;;;6250258;22;20016;-89
2021/01/03 08:04:39;;;;;;;26.95;10.23;;;;;;;;;;6310765;22;20062;-90
2021/01/03 08:07:53;;;;;;;24.15;13.60;;;;;;;;;;6195214;22;20091;-89
2021/01/03 08:11:19;;;;;;;;;;;3.60;99.90;;;;;;6290698;22;20013;-90
2021/01/03 08:14:08;;;;;;;26.08;11.68;;;;;;;;;;6274848;22;19954;-90
2021/01/03 08:17:02;;;;;;;26.70;12.57;;;;;;;;;;6257695;22;20079;-90
2021/01/03 08:20:19;;;;;;;21.25;9.98;;;;;;;;;;6213090;23;20018;-90
2021/01/03 08:23:38;;;;;;;30.30;11.80;;;;;;;;;;6257949;23;20012;-89
2021/01/03 08:26:53;;;;;;;27.35;13.85;;;;;;;;;;6266424;23;20000;-90
2021/01/03 08:30:25;;;;;;;27.90;12.68;;;;;;;;;;6273828;23;20024;-90
2021/01/03 08:34:23;;;;;;;27.52;12.55;;;3.70;99.90;;;;;;6260857;23;20027;-91
2021/01/03 08:37:27;;;;;;;33.55;16.23;;;3.70;99.90;;;;;;6209785;23;20027;-90
2021/01/03 08:40:55;;;;;;;33.58;13.05;;;;;;;;;;6234740;23;20020;-90
2021/01/03 08:44:09;;;;;;;25.05;11.70;;;;;;;;;;6271761;23;20046;-90
2021/01/03 08:47:07;;;;;;;28.05;14.32;;;;;;;;;;6262232;23;20066;-89
2021/01/03 08:50:30;;;;;;;31.65;14.90;;;;;;;;;;6206301;23;20030;-89
2021/01/03 08:53:25;;;;;;;28.20;13.40;;;;;;;;;;6215860;23;20020;-88
2021/01/03 08:56:17;;;;;;;25.63;12.85;;;;;;;;;;6227115;23;20012;-89
2021/01/03 08:59:06;;;;;;;29.48;14.00;;;;;;;;;;6236880;23;20034;-89
2021/01/03 09:02:05;;;;;;;31.15;13.85;;;3.90;99.90;;;;;;6250507;23;20024;-91
2021/01/03 09:05:30;;;;;;;26.77;13.80;;;;;;;;;;6193747;23;20017;-90
2021/01/03 09:08:36;;;;;;;26.02;12.45;;;;;;;;;;6150997;23;20018;-90
2021/01/03 09:12:21;;;;;;;28.88;11.65;;;;;;;;;;6177000;22;20032;-90
2021/01/03 09:15:23;;;;;;;30.08;11.70;;;;;;;;;;6288148;22;20030;-89
2021/01/03 09:18:42;;;;;;;28.35;11.05;;;4.00;99.90;;;;;;6297761;22;20011;-89
2021/01/03 09:22:01;;;;;;;38.83;12.52;;;;;;;;;;6273580;22;20011;-91
2021/01/03 09:28:40;;;;;;;20.38;9.70;;;;;;;;;;6270750;22;20011;-90
2021/01/03 09:31:29;;;;;;;21.17;10.75;;;;;;;;;;6303125;22;20194;-90
2021/01/03 09:34:22;;;;;;;19.77;10.35;;;;;;;;;;6218243;22;20485;-90
2021/01/03 09:37:27;;;;;;;26.83;12.15;;;;;;;;;;6290780;22;20023;-90
2021/01/03 09:45:21;;;;;;;23.63;11.70;;;;;;;;;;6298688;22;20023;-90
2021/01/03 09:53:36;;;;;;;22.67;10.02;;;;;;;;;;6332417;22;20026;-90
2021/01/03 09:56:28;;;;;;;19.85;8.88;;;;;;;;;;6259620;22;20011;-90
2021/01/03 10:00:02;;;;;;;27.20;9.30;;;;;;;;;;6331882;22;20015;-91
2021/01/03 10:03:23;;;;;;;30.02;9.80;;;;;;;;;;6294744;22;20100;-90
2021/01/03 10:07:24;;;;;;;17.50;8.27;;;;;;;;;;6339135;22;20017;-91
2021/01/03 10:10:58;;;;;;;21.98;10.25;;;;;;;;;;6305649;22;20015;-91
2021/01/03 10:14:29;;;;;;;24.00;10.45;;;;;;;;;;6186136;23;20023;-91
2021/01/03 10:17:32;;;;;;;;;;;4.30;99.90;;;;;;6180630;22;20019;-90
2021/01/03 10:21:02;;;;;;;18.20;8.40;;;;;;;;;;6250218;22;19906;-90
2021/01/03 10:24:24;;;;;;;19.13;8.23;;;;;;;;;;6259220;22;20030;-89
2021/01/03 10:28:20;;;;;;;17.67;6.53;;;;;;;;;;6279842;23;20076;-91
2021/01/03 10:31:17;;;;;;;16.17;7.75;;;;;;;;;;6249389;22;20028;-90
2021/01/03 10:34:28;;;;;;;15.20;8.93;;;;;;;;;;6236869;22;20011;-91
2021/01/03 10:38:26;;;;;;;18.90;6.97;;;;;;;;;;6299007;22;20023;-90
2021/01/03 10:42:26;;;;;;;13.45;6.50;;;;;;;;;;6299540;22;20007;-90
2021/01/03 10:45:35;;;;;;;18.38;7.38;;;;;;;;;;6191994;23;20004;-91
2021/01/03 10:48:47;;;;;;;16.10;7.07;;;;;;;;;;6251711;23;20076;-90
2021/01/03 10:52:09;;;;;;;15.88;7.63;;;;;;;;;;6239614;23;20507;-90
2021/01/03 10:55:41;;;;;;;21.38;7.88;;;;;;;;;;6260130;22;20011;-89
2021/01/03 10:58:34;;;;;;;15.00;8.32;;;;;;;;;;6289377;22;20023;-90
2021/01/03 11:01:24;;;;;;;15.40;6.90;;;;;;;;;;6268297;22;20015;-90
2021/01/03 11:08:39;;;;;;;17.85;7.88;;;4.10;99.90;;;;;;6285073;22;20037;-90
2021/01/03 11:11:45;;;;;;;16.80;8.30;;;;;;;;;;6249752;22;20018;-89
2021/01/03 11:14:21;;;;;;;18.50;9.13;;;;;;;;;;6272286;22;20031;-91
2021/01/03 11:16:58;;;;;;;20.13;8.68;;;;;;;;;;6244774;22;20026;-90
2021/01/03 11:20:53;;;;;;;18.35;8.27;;;4.70;99.90;;;;;;6273069;22;20099;-90
2021/01/03 11:24:14;;;;;;;17.05;7.10;;;;;;;;;;6299680;22;20008;-92
2021/01/03 11:35:27;;;;;;;17.20;6.75;;;;;;;;;;6300370;22;20008;-92
2021/01/03 11:56:51;;;;;;;10.50;4.57;;;;;;;;;;6227023;22;20527;-92
2021/01/03 12:50:02;;;;;;;10.02;5.43;;;;;;;;;;6293746;22;20019;-92
2021/01/03 12:53:48;;;;;;;14.07;5.70;;;6.60;99.90;;;;;;6274407;22;20018;-93
2021/01/03 12:57:44;;;;;;;12.18;6.25;;;6.60;99.90;;;;;;6260177;22;20061;-92
2021/01/03 13:00:31;;;;;;;11.65;6.03;;;;;;;;;;6238372;22;20034;-92
2021/01/03 13:03:27;;;;;;;11.27;5.32;;;6.70;99.90;;;;;;6289919;22;20020;-89
2021/01/03 13:06:06;;;;;;;9.32;4.50;;;;;;;;;;6245127;22;20020;-89
2021/01/03 13:09:26;;;;;;;12.40;4.75;;;6.40;99.90;;;;;;6265758;22;20020;31
2021/01/03 13:12:29;;;;;;;12.02;4.82;;;;;;;;;;6261436;23;20023;-90
2021/01/03 13:15:31;;;;;;;10.98;4.90;;;;;;;;;;6239981;23;20004;-91
2021/01/03 13:18:28;;;;;;;9.15;4.63;;;;;;;;;;6235249;23;20080;-90
2021/01/03 13:21:44;;;;;;;16.10;6.63;;;;;;;;;;6241032;23;20004;-90
2021/01/03 13:39:55;;;;;;;9.52;4.72;;;;;;;;;;6205642;23;20021;-89
2021/01/03 13:43:24;;;;;;;35.47;6.75;;;;;;;;;;6213854;23;20022;-91
2021/01/03 13:46:40;;;;;;;13.13;5.15;;;;;;;;;;6230491;23;20001;-90
2021/01/03 13:49:25;;;;;;;9.43;4.25;;;;;;;;;;6231683;23;20024;-90
2021/01/03 13:55:27;;;;;;;9.60;4.45;;;;;;;;;;6182680;23;20021;-87
2021/01/03 13:58:07;;;;;;;8.50;3.70;;;;;;;;;;6201551;23;20030;-89
2021/01/03 14:00:42;;;;;;;14.18;6.30;;;;;;;;;;6231209;23;20018;-89
2021/01/03 14:03:13;;;;;;;14.63;4.27;;;;;;;;;;6206999;23;20023;-88
2021/01/03 14:05:44;;;;;;;13.98;4.30;;;;;;;;;;6185384;23;20021;-88
2021/01/03 14:08:13;;;;;;;14.18;6.03;;;;;;;;;;6185264;23;20005;-89
2021/01/03 14:11:05;;;;;;;6.82;4.57;;;;;;;;;;6208314;23;20019;-90
2021/01/03 14:13:53;;;;;;;8.73;3.97;;;;;;;;;;6231726;23;20014;-88
2021/01/03 14:17:33;;;;;;;5.80;3.40;;;;;;;;;;6246473;23;20039;-88
2021/01/03 14:20:24;;;;;;;6.10;3.58;;;;;;;;;;6190428;23;20012;-90
2021/01/03 14:22:57;;;;;;;7.95;3.50;;;;;;;;;;6199250;23;20695;-87
2021/01/03 14:25:33;;;;;;;7.40;3.67;;;;;;;;;;6203987;23;20340;-89
2021/01/03 14:28:12;;;;;;;8.95;3.90;;;;;;;;;;6210949;23;20011;-90
2021/01/03 14:31:32;;;;;;;2.97;2.30;;;;;;;;;;6187912;22;20012;-88
2021/01/03 14:37:48;;;;;;;7.22;2.67;;;;;;;;;;6163864;23;20032;-87
2021/01/03 14:40:33;;;;;;;10.55;4.25;;;;;;;;;;6196045;23;20008;-87
2021/01/03 14:43:28;;;;;;;7.55;3.00;;;;;;;;;;6203712;23;20027;-87
2021/01/03 14:46:08;;;;;;;9.00;3.42;;;;;;;;;;6157004;23;20023;-87
2021/01/03 14:49:30;;;;;;;11.57;4.05;;;5.20;99.90;;;;;;6200936;23;20027;-88
2021/01/03 14:52:05;;;;;;;10.82;3.65;;;;;;;;;;6218675;23;20036;-87
2021/01/03 14:55:06;;;;;;;7.80;3.38;;;;;;;;;;6145410;23;20025;-91
2021/01/03 14:57:37;;;;;;;9.15;4.18;;;4.80;99.90;;;;;;6168184;23;20017;-88
2021/01/03 15:00:16;;;;;;;7.60;3.95;;;5.00;99.90;;;;;;6164567;23;20027;-88
2021/01/03 15:03:00;;;;;;;6.75;3.75;;;;;;;;;;6189105;23;20357;-86
2021/01/03 15:06:10;;;;;;;8.57;4.90;;;4.80;99.90;;;;;;6194859;23;20021;-88
2021/01/03 15:08:41;;;;;;;9.95;3.80;;;;;;;;;;6140282;23;20025;-87
2021/01/03 15:11:10;;;;;;;;;;;4.80;99.90;;;;;;6192656;23;20021;-90
2021/01/03 15:13:43;;;;;;;9.77;4.25;;;4.90;99.90;;;;;;6165941;23;19920;-89
2021/01/03 15:16:26;;;;;;;12.90;4.33;;;;;;;;;;6172699;23;20029;-90
2021/01/03 15:18:59;;;;;;;7.70;3.95;;;;;;;;;;6198002;23;20307;-89
2021/01/03 15:21:43;;;;;;;;;;;;;;;;;;6202999;23;20033;-89
2021/01/03 15:24:19;;;;;;;7.63;4.55;;;;;;;;;;6202505;23;19916;-90
2021/01/03 15:27:11;;;;;;;9.95;4.53;;;;;;;;;;6161276;23;20025;-89
2021/01/03 15:30:05;;;;;;;18.92;5.80;;;;;;;;;;6200366;23;20013;-88
2021/01/03 15:32:58;;;;;;;8.55;4.43;;;;;;;;;;6146392;23;20021;-89
2021/01/03 15:35:40;;;;;;;14.00;5.20;;;;;;;;;;6198980;23;20016;-89
2021/01/03 15:38:36;;;;;;;9.43;4.68;;;;;;;;;;6105583;23;20034;-88
2021/01/03 15:41:50;;;;;;;22.58;5.82;;;4.90;99.90;;;;;;6044148;23;20041;-88
2021/01/03 15:44:23;;;;;;;19.20;8.25;;;;;;;;;;6071529;23;20022;-89
2021/01/03 15:47:14;;;;;;;23.52;10.75;;;;;;;;;;6093547;23;20023;-89
2021/01/03 15:49:47;;;;;;;16.15;6.53;;;;;;;;;;6056204;23;20025;-91
2021/01/03 15:52:26;;;;;;;11.10;6.40;;;;;;;;;;6052661;23;20023;-89
2021/01/03 15:55:00;;;;;;;11.27;5.97;;;;;;;;;;6054723;23;20015;-89
2021/01/03 15:57:34;;;;;;;13.95;6.75;;;;;;;;;;6058872;23;20011;-89
2021/01/03 16:00:08;;;;;;;11.73;6.57;;;;;;;;;;6056921;23;20431;-88
2021/01/03 16:02:38;;;;;;;15.00;8.00;;;;;;;;;;6051516;23;20019;-90
2021/01/03 16:05:10;;;;;;;12.07;7.10;;;5.00;99.90;;;;;;6080994;23;20015;-88
2021/01/03 16:07:43;;;;;;;12.23;6.05;;;;;;;;;;6055806;23;20035;-90
2021/01/03 16:10:12;;;;;;;13.18;5.93;;;;;;;;;;6054744;23;20026;-90
2021/01/03 16:12:42;;;;;;;12.48;6.60;;;;;;;;;;6061070;23;20019;-88
2021/01/03 16:15:16;;;;;;;12.93;7.07;;;4.90;99.90;;;;;;6060437;23;20037;-90
2021/01/03 16:18:14;;;;;;;17.27;7.97;;;4.90;99.90;;;;;;6085934;23;20015;-89
2021/01/03 16:20:51;;;;;;;11.25;6.70;;;;;;;;;;6085075;23;20007;-88
2021/01/03 16:24:17;;;;;;;13.35;5.90;;;;;;;;;;6090409;23;20027;-88
2021/01/03 16:26:51;;;;;;;14.88;5.13;;;;;;;;;;6106439;23;20023;-86
2021/01/03 16:30:11;;;;;;;13.55;5.18;;;4.80;99.90;;;;;;6082011;23;20566;-87
2021/01/03 16:32:50;;;;;;;13.80;6.53;;;;;;;;;;6095295;23;20025;-87
2021/01/03 16:35:53;;;;;;;13.52;5.35;;;;;;;;;;6129041;23;20627;-87
2021/01/03 16:38:30;;;;;;;13.45;6.28;;;;;;;;;;6168036;23;20035;-85
2021/01/03 16:41:42;;;;;;;13.15;6.30;;;;;;;;;;6155972;23;20032;-86
2021/01/03 16:44:46;;;;;;;15.18;6.97;;;4.90;99.90;;;;;;6075933;23;20020;-87
2021/01/03 16:47:32;;;;;;;11.38;6.28;;;;;;;;;;6176455;23;20475;-86
2021/01/03 16:50:36;;;;;;;14.70;6.65;;;4.90;99.90;;;;;;6198199;23;20029;-86
2021/01/03 16:53:25;;;;;;;14.80;6.45;;;;;;;;;;6194847;23;20021;-86
2021/01/03 16:55:53;;;;;;;15.43;7.07;;;;;;;;;;6170413;23;20484;-87
2021/01/03 16:58:56;;;;;;;20.75;7.03;;;;;;;;;;6147827;23;20017;-86
2021/01/03 17:01:34;;;;;;;18.58;8.70;;;;;;;;;;6172005;23;20031;-88
2021/01/03 17:04:04;;;;;;;15.77;7.60;;;;;;;;;;6193234;23;20047;-86
2021/01/03 17:07:01;;;;;;;16.48;10.02;;;;;;;;;;6171434;23;20025;-85
2021/01/03 17:09:58;;;;;;;13.90;7.55;;;;;;;;;;6145244;23;20019;-86
2021/01/03 17:12:41;;;;;;;18.35;7.78;;;;;;;;;;6173441;23;20027;-86
2021/01/03 17:15:35;;;;;;;14.15;6.88;;;;;;;;;;6197306;23;20234;-87
2021/01/03 17:18:22;;;;;;;14.55;7.32;;;;;;;;;;6200376;23;20460;-87
2021/01/03 17:21:06;;;;;;;15.57;7.80;;;;;;;;;;6154096;23;20013;-87
2021/01/03 17:23:40;;;;;;;13.88;6.50;;;;;;;;;;6161472;23;20017;-84
2021/01/03 17:26:36;;;;;;;13.38;6.78;;;;;;;;;;6185933;23;20023;-84
2021/01/03 17:29:58;;;;;;;20.15;8.82;;;;;;;;;;6208463;23;20524;-84
2021/01/03 17:32:40;;;;;;;21.80;10.02;;;;;;;;;;6043325;23;20029;-87
2021/01/03 17:35:37;;;;;;;20.05;8.57;;;;;;;;;;6182336;23;20662;-85
2021/01/03 17:38:39;;;;;;;16.98;8.82;;;;;;;;;;6177912;23;20029;-85
2021/01/03 17:41:36;;;;;;;17.52;9.25;;;;;;;;;;6154256;23;20017;-84
2021/01/03 17:44:21;;;;;;;20.63;8.60;;;;;;;;;;6153965;23;20068;-85
2021/01/03 17:47:29;;;;;;;18.63;9.00;;;;;;;;;;6133663;23;20044;-86
2021/01/03 17:50:25;;;;;;;20.70;9.40;;;;;;;;;;6158085;23;20021;-86
2021/01/03 17:52:59;;;;;;;19.50;9.63;;;;;;;;;;6133106;23;20043;-87
2021/01/03 17:55:36;;;;;;;18.10;8.52;;;;;;;;;;6158182;23;20025;-86
2021/01/03 17:58:08;;;;;;;17.42;7.97;;;;;;;;;;6133610;23;20026;-86
2021/01/03 18:00:40;;;;;;;14.05;7.10;;;;;;;;;;6156376;23;20029;-86
2021/01/03 18:03:21;;;;;;;20.60;8.10;;;;;;;;;;6158397;23;20021;-86
2021/01/03 18:06:03;;;;;;;17.40;6.82;;;;;;;;;;6158608;23;20017;-88
2021/01/03 18:08:39;;;;;;;15.02;7.18;;;;;;;;;;6134004;23;20027;-85
2021/01/03 18:11:27;;;;;;;14.45;7.78;;;;;;;;;;6158459;23;20026;-87
2021/01/03 18:14:04;;;;;;;16.05;7.20;;;;;;;;;;6159406;23;20018;-87
2021/01/03 18:16:43;;;;;;;17.08;8.13;;;;;;;;;;6141031;23;20326;-86
2021/01/03 18:19:17;;;;;;;20.50;6.55;;;4.80;99.90;;;;;;6166006;23;20027;-89
2021/01/03 18:21:50;;;;;;;16.83;7.30;;;;;;;;;;6142291;23;20026;-89
2021/01/03 18:24:23;;;;;;;18.25;7.97;;;;;;;;;;6145219;23;20786;-86
2021/01/03 18:26:53;;;;;;;16.42;8.07;;;;;;;;;;6168451;23;20164;-87
2021/01/03 18:29:25;;;;;;;14.15;8.43;;;;;;;;;;6122926;23;20013;-89
2021/01/03 18:31:58;;;;;;;23.35;8.65;;;4.60;99.90;;;;;;6141026;23;20021;-88
2021/01/03 18:34:26;;;;;;;16.20;7.57;;;;;;;;;;6170624;23;20044;-85
2021/01/03 18:37:01;;;;;;;17.17;8.27;;;;;;;;;;6119619;23;20022;-86
2021/01/03 18:39:30;;;;;;;25.83;9.00;;;;;;;;;;6190333;23;20029;-85
2021/01/03 18:42:03;;;;;;;17.73;8.15;;;;;;;;;;6199866;23;20020;-86
2021/01/03 18:44:34;;;;;;;22.83;8.82;;;;;;;;;;6172544;23;20031;-85
2021/01/03 18:47:04;;;;;;;17.85;7.97;;;4.70;99.90;;;;;;6193393;23;20013;-86
2021/01/03 18:49:35;;;;;;;15.27;7.78;;;;;;;;;;6129098;23;20036;-85
2021/01/03 18:52:10;;;;;;;15.52;7.50;;;;;;;;;;6199216;23;20032;-87
2021/01/03 18:54:38;;;;;;;18.58;8.95;;;;;;;;;;6169879;23;20017;-85
2021/01/03 18:57:07;;;;;;;19.83;9.85;;;;;;;;;;6169586;23;20029;-86
2021/01/03 18:59:37;;;;;;;23.27;8.98;;;;;;;;;;6195115;23;20013;-89
2021/01/03 19:02:06;;;;;;;20.25;7.40;;;;;;;;;;6171373;23;20017;-91
2021/01/03 19:04:36;;;;;;;;;;;4.50;99.90;;;;;;6194198;23;20021;-87
2021/01/03 19:07:07;;;;;;;19.15;7.25;;;;;;;;;;6199430;23;19930;-87
2021/01/03 19:09:41;;;;;;;19.85;8.30;;;;;;;;;;6200629;23;20025;-88
2021/01/03 19:12:16;;;;;;;22.45;8.63;;;;;;;;;;6174417;23;20013;-88
2021/01/03 19:14:46;;;;;;;15.32;7.93;;;;;;;;;;6193755;23;20029;-85
2021/01/03 19:17:19;;;;;;;16.27;8.02;;;;;;;;;;6195423;23;20020;-85
2021/01/03 19:19:55;;;;;;;15.90;7.25;;;;;;;;;;6197628;23;20029;-84